Time;durP1;ratioP1;P1;durP2;ratioP2;P2;SDS_P1;SDS_P2;PMS_P1;PMS_P2;Temp;Humidity;BMP_temperature;BMP_pressure;BME280_temperature;BME280_humidity;BME280_pressure;Samples;Min_cycle;Max_cycle;Signal;HPM_P1;HPM_P2
2021/04/05 00:00:42;;;;;;;10.15;3.72;;;7.60;74.20;;;;;;4975298;28;20074;-73
2021/04/05 00:03:08;;;;;;;9.73;3.63;;;7.60;74.20;;;;;;4974582;28;20030;-73
2021/04/05 00:05:37;;;;;;;10.23;4.15;;;7.60;74.40;;;;;;4975432;28;20038;-73
2021/04/05 00:08:04;;;;;;;8.32;3.47;;;7.50;74.50;;;;;;4973267;28;20030;-73
2021/04/05 00:10:31;;;;;;;10.05;3.47;;;7.50;74.40;;;;;;4975121;28;20027;-74
2021/04/05 00:13:00;;;;;;;6.57;3.60;;;7.60;74.40;;;;;;4974872;28;20053;-74
2021/04/05 00:15:26;;;;;;;9.02;4.38;;;7.60;74.50;;;;;;4975037;28;20030;-74
2021/04/05 00:17:52;;;;;;;10.25;3.65;;;7.60;74.60;;;;;;4975052;28;20035;-74
2021/04/05 00:20:32;;;;;;;9.05;3.63;;;7.60;74.50;;;;;;4973066;28;20464;-73
2021/04/05 00:22:59;;;;;;;9.43;3.92;;;7.60;74.50;;;;;;4975192;28;20472;-72
2021/04/05 00:25:25;;;;;;;12.88;4.95;;;7.60;75.20;;;;;;4974233;28;20142;-73
2021/04/05 00:27:51;;;;;;;11.63;4.57;;;7.60;75.00;;;;;;4974862;28;20030;-73
2021/04/05 00:30:21;;;;;;;11.52;4.43;;;7.50;75.00;;;;;;4973642;28;20054;-73
2021/04/05 00:32:47;;;;;;;8.43;3.30;;;7.50;74.90;;;;;;4973634;28;20023;-72
2021/04/05 00:35:16;;;;;;;13.05;4.03;;;7.50;74.90;;;;;;4974201;28;20038;-73
2021/04/05 00:37:42;;;;;;;14.73;4.38;;;7.60;75.00;;;;;;4974656;28;20095;-73
2021/04/05 00:40:13;;;;;;;13.45;5.30;;;7.60;75.00;;;;;;4973900;28;20033;-73
2021/04/05 00:42:41;;;;;;;10.77;4.10;;;7.60;75.10;;;;;;4973558;28;20106;-73
2021/04/05 00:45:08;;;;;;;11.00;4.40;;;7.60;75.10;;;;;;4974069;28;20348;-74
2021/04/05 00:47:48;;;;;;;9.00;3.97;;;7.60;75.00;;;;;;4974640;28;20531;-73
2021/04/05 00:50:17;;;;;;;11.15;3.88;;;7.60;74.90;;;;;;4973897;28;20027;-73
2021/04/05 00:52:43;;;;;;;8.38;3.80;;;7.60;74.80;;;;;;4974147;28;20034;-74
2021/04/05 00:55:10;;;;;;;10.23;3.92;;;7.60;74.70;;;;;;4973693;28;20081;-74
2021/04/05 00:57:36;;;;;;;13.57;4.55;;;7.70;74.70;;;;;;4974206;28;20081;-74
2021/04/05 01:00:28;;;;;;;11.23;3.95;;;7.60;74.80;;;;;;4974184;28;20035;-73
2021/04/05 01:02:53;;;;;;;7.93;3.95;;;7.70;74.80;;;;;;4963696;28;20047;-74
2021/04/05 01:05:19;;;;;;;8.40;3.90;;;7.70;74.80;;;;;;4973527;28;20102;-73
2021/04/05 01:07:45;;;;;;;16.15;4.82;;;7.70;74.90;;;;;;4974224;28;20199;-73
2021/04/05 01:10:11;;;;;;;7.93;4.82;;;7.70;75.00;;;;;;4973584;28;20121;-73
2021/04/05 01:12:38;;;;;;;10.73;4.25;;;7.60;75.20;;;;;;4973389;28;20057;-73
2021/04/05 01:15:09;;;;;;;12.15;4.63;;;7.60;75.30;;;;;;4973870;28;20027;-72
2021/04/05 01:17:35;;;;;;;12.93;5.27;;;7.60;75.20;;;;;;4973934;28;20029;-72
2021/04/05 01:20:04;;;;;;;11.82;4.40;;;7.60;75.20;;;;;;4973859;28;20263;-73
2021/04/05 01:22:30;;;;;;;10.32;3.85;;;7.60;75.20;;;;;;4971879;28;20050;-73
2021/04/05 01:24:55;;;;;;;10.50;4.63;;;7.70;75.40;;;;;;4973558;28;20478;-74
2021/04/05 01:27:21;;;;;;;15.73;4.85;;;7.70;75.30;;;;;;4973148;28;20503;-73
2021/04/05 01:29:46;;;;;;;7.07;2.88;;;7.70;75.20;;;;;;4973985;28;20031;-73
2021/04/05 01:32:12;;;;;;;9.77;3.83;;;7.70;75.20;;;;;;4973088;28;20050;-73
2021/04/05 01:34:38;;;;;;;7.80;3.42;;;7.70;75.10;;;;;;4972491;28;20505;-73
2021/04/05 01:37:05;;;;;;;10.85;4.50;;;7.80;75.10;;;;;;4973341;28;20031;-73
2021/04/05 01:39:35;;;;;;;9.32;4.97;;;7.80;75.00;;;;;;4972850;28;20506;-73
2021/04/05 01:42:02;;;;;;;13.88;5.82;;;7.90;75.20;;;;;;4973566;28;20026;-73
2021/04/05 01:44:31;;;;;;;12.80;4.13;;;7.90;75.60;;;;;;4972816;28;20084;-73
2021/04/05 01:46:56;;;;;;;15.55;5.38;;;7.90;75.30;;;;;;4973426;28;20022;-74
2021/04/05 01:49:22;;;;;;;10.70;4.45;;;7.90;75.10;;;;;;4971578;28;20049;-73
2021/04/05 01:51:48;;;;;;;14.38;4.45;;;8.00;75.00;;;;;;4971956;28;20538;-73
2021/04/05 01:54:13;;;;;;;9.80;3.85;;;8.00;74.70;;;;;;4972633;28;20111;-74
2021/04/05 01:56:39;;;;;;;11.10;5.28;;;8.10;74.70;;;;;;4973623;28;20035;-74
2021/04/05 01:59:05;;;;;;;8.23;4.30;;;8.10;74.80;;;;;;4973292;28;20425;-74
2021/04/05 02:01:32;;;;;;;8.15;3.78;;;8.10;74.90;;;;;;4972603;28;20029;-73
2021/04/05 02:04:01;;;;;;;9.23;4.45;;;8.10;74.90;;;;;;4973416;28;20035;-73
2021/04/05 02:06:32;;;;;;;11.95;4.32;;;8.10;74.90;;;;;;4972877;28;20114;-72
2021/04/05 02:08:58;;;;;;;14.43;3.60;;;8.10;75.00;;;;;;4956110;28;20379;-73
2021/04/05 02:11:27;;;;;;;14.57;4.45;;;8.20;75.10;;;;;;4971208;28;20019;-73
2021/04/05 02:13:57;;;;;;;11.15;4.47;;;8.20;75.10;;;;;;4973143;28;20460;-74
2021/04/05 02:16:24;;;;;;;6.25;3.65;;;8.20;75.00;;;;;;4972203;28;20050;-74
2021/04/05 02:18:51;;;;;;;11.38;4.43;;;8.20;75.00;;;;;;4973082;28;20026;-75
2021/04/05 02:21:23;;;;;;;11.48;5.18;;;8.30;75.00;;;;;;4972579;28;20116;-73
2021/04/05 02:23:49;;;;;;;8.90;4.35;;;8.30;75.30;;;;;;4971899;28;20027;-74
2021/04/05 02:26:20;;;;;;;10.68;4.07;;;8.30;75.30;;;;;;4972494;28;20195;-73
2021/04/05 02:28:53;;;;;;;14.43;3.65;;;8.30;75.50;;;;;;4971847;28;20113;-72
2021/04/05 02:31:21;;;;;;;11.50;4.43;;;8.30;75.50;;;;;;4971956;28;20133;-73
2021/04/05 02:33:49;;;;;;;11.75;4.25;;;8.30;75.90;;;;;;4972825;28;20480;-73
2021/04/05 02:36:17;;;;;;;11.20;4.43;;;8.30;76.00;;;;;;4972304;28;20034;-73
2021/04/05 02:38:46;;;;;;;12.98;4.28;;;8.30;76.10;;;;;;4972808;28;20031;-73
2021/04/05 02:41:13;;;;;;;12.25;3.70;;;8.30;76.10;;;;;;4971984;28;20381;-74
2021/04/05 02:43:40;;;;;;;11.85;4.10;;;8.30;76.40;;;;;;4972556;28;20095;-73
2021/04/05 02:46:11;;;;;;;11.25;4.10;;;8.30;76.50;;;;;;4973024;28;20050;-73
2021/04/05 02:48:39;;;;;;;11.95;5.43;;;8.40;77.00;;;;;;4972313;28;20047;-73
2021/04/05 02:51:07;;;;;;;10.35;4.20;;;8.40;76.90;;;;;;4972512;28;20046;-73
2021/04/05 02:53:36;;;;;;;14.65;4.55;;;8.40;76.90;;;;;;4970746;28;20062;-74
2021/04/05 02:56:04;;;;;;;14.52;5.97;;;8.50;77.20;;;;;;4972676;28;20109;-74
2021/04/05 02:58:35;;;;;;;14.32;5.45;;;8.40;77.40;;;;;;4972182;28;20098;-73
2021/04/05 03:01:01;;;;;;;15.60;4.28;;;8.40;77.60;;;;;;4971431;28;20030;-74
2021/04/05 03:03:27;;;;;;;12.55;4.47;;;8.50;77.70;;;;;;4972020;28;20549;-73
2021/04/05 03:05:54;;;;;;;8.52;3.35;;;8.50;77.60;;;;;;4972669;28;20054;-73
2021/04/05 03:08:20;;;;;;;8.85;3.55;;;8.50;77.70;;;;;;4972068;28;20034;-73
2021/04/05 03:10:46;;;;;;;17.40;4.72;;;8.50;77.70;;;;;;4971397;28;20109;-74
2021/04/05 03:13:14;;;;;;;12.85;4.93;;;8.60;78.00;;;;;;4972638;28;20499;-73
2021/04/05 03:15:40;;;;;;;10.32;4.47;;;8.60;78.00;;;;;;4972668;28;20038;-74
2021/04/05 03:18:07;;;;;;;10.18;4.03;;;8.60;77.80;;;;;;4971273;28;20106;-74
2021/04/05 03:20:35;;;;;;;7.32;3.80;;;8.70;77.90;;;;;;4971885;28;20030;-73
2021/04/05 03:23:04;;;;;;;12.95;4.75;;;8.70;77.80;;;;;;4972594;28;20059;-73
2021/04/05 03:25:30;;;;;;;10.10;4.05;;;8.70;77.90;;;;;;4970587;28;20019;-74
2021/04/05 03:27:57;;;;;;;16.80;4.18;;;8.70;77.70;;;;;;4972444;28;20030;-74
2021/04/05 03:30:48;;;;;;;13.85;4.13;;;8.80;77.80;;;;;;4971665;28;20435;-74
2021/04/05 03:33:30;;;;;;;14.77;4.38;;;8.80;77.70;;;;;;4972630;28;20074;-74
2021/04/05 03:36:04;;;;;;;12.90;4.18;;;8.80;77.70;;;;;;4973639;28;20031;-74
2021/04/05 03:38:30;;;;;;;10.98;3.83;;;8.80;77.70;;;;;;4975189;28;20026;-74
2021/04/05 03:40:59;;;;;;;11.20;4.10;;;8.80;77.70;;;;;;4975775;28;20208;-73
2021/04/05 03:43:38;;;;;;;16.65;4.28;;;8.80;78.00;;;;;;4975373;28;20481;-73
2021/04/05 03:46:13;;;;;;;9.48;4.18;;;8.80;78.00;;;;;;4975540;28;20031;-74
2021/04/05 03:48:46;;;;;;;8.85;3.75;;;8.90;77.90;;;;;;4973852;28;20019;-73
2021/04/05 03:51:29;;;;;;;14.40;3.95;;;8.90;77.80;;;;;;4975593;28;20030;-74
2021/04/05 03:54:17;;;;;;;10.73;4.03;;;8.90;77.70;;;;;;4975701;28;20101;-74
2021/04/05 03:56:46;;;;;;;9.55;3.47;;;8.90;77.70;;;;;;4975750;28;20023;-73
2021/04/05 03:59:21;;;;;;;7.78;4.18;;;8.90;77.70;;;;;;4975491;28;20086;-74
2021/04/05 04:01:53;;;;;;;10.50;4.30;;;9.00;78.40;;;;;;4975592;28;20019;-73
2021/04/05 04:04:23;;;;;;;9.65;3.65;;;9.00;77.80;;;;;;4974818;28;20038;-75
2021/04/05 04:09:25;;;;;;;12.73;3.55;;;9.00;77.90;;;;;;4974953;28;20030;-74
2021/04/05 04:11:54;;;;;;;14.10;4.05;;;8.90;77.90;;;;;;4975207;28;20088;-74
2021/04/05 04:14:21;;;;;;;11.13;3.80;;;9.00;78.10;;;;;;4974623;28;20027;-74
2021/04/05 04:16:48;;;;;;;11.35;4.22;;;9.00;78.00;;;;;;4974774;28;20031;-74
2021/04/05 04:19:15;;;;;;;11.35;4.05;;;9.00;77.90;;;;;;4975057;28;20023;-74
2021/04/05 04:21:44;;;;;;;13.55;5.65;;;9.00;78.10;;;;;;4973272;28;20022;-74
2021/04/05 04:24:10;;;;;;;15.23;5.03;;;9.00;78.30;;;;;;4975042;28;20030;-73
2021/04/05 04:26:36;;;;;;;14.05;4.72;;;9.00;78.80;;;;;;4974306;28;20030;-74
2021/04/05 04:29:05;;;;;;;12.95;5.25;;;8.90;78.60;;;;;;4974885;28;20030;-74
2021/04/05 04:31:31;;;;;;;10.68;5.20;;;8.90;79.00;;;;;;4972736;28;20073;-74
2021/04/05 04:33:57;;;;;;;10.65;4.18;;;8.90;79.20;;;;;;4975151;28;20038;-73
2021/04/05 04:36:26;;;;;;;9.90;4.10;;;8.80;79.00;;;;;;4974061;28;20030;-74
2021/04/05 04:38:56;;;;;;;9.40;3.35;;;8.90;79.10;;;;;;4974357;28;20125;-73
2021/04/05 04:41:30;;;;;;;12.40;4.10;;;8.80;78.90;;;;;;4972638;28;20502;-73
2021/04/05 04:43:57;;;;;;;10.02;3.78;;;8.90;78.80;;;;;;4974605;28;20041;-73
2021/04/05 04:46:23;;;;;;;9.88;3.67;;;8.90;78.70;;;;;;4972830;28;20058;-74
2021/04/05 04:48:54;;;;;;;10.85;4.18;;;8.90;78.80;;;;;;4974473;28;20069;-74
2021/04/05 04:51:20;;;;;;;9.85;4.00;;;9.00;78.90;;;;;;4974513;28;20037;-74
2021/04/05 04:53:45;;;;;;;13.23;4.47;;;8.90;79.10;;;;;;4973642;28;20034;-74
2021/04/05 04:56:11;;;;;;;12.30;4.05;;;8.80;79.60;;;;;;4974295;28;20077;-74
2021/04/05 04:58:37;;;;;;;9.40;4.18;;;8.90;79.80;;;;;;4973638;28;20353;-74
2021/04/05 05:01:03;;;;;;;8.82;3.80;;;8.90;79.90;;;;;;4974298;28;20053;-73
2021/04/05 05:03:30;;;;;;;13.73;4.22;;;8.90;80.20;;;;;;4973677;28;20033;-73
2021/04/05 05:05:58;;;;;;;9.88;3.42;;;8.90;80.30;;;;;;4974148;28;20019;-73
2021/04/05 05:08:24;;;;;;;8.60;2.78;;;8.90;80.30;;;;;;4973240;28;20054;-74
2021/04/05 05:10:52;;;;;;;9.68;3.45;;;8.80;80.50;;;;;;4974144;28;20027;-73
2021/04/05 05:13:18;;;;;;;9.80;3.60;;;8.90;80.60;;;;;;4974109;28;20347;-74
2021/04/05 05:15:45;;;;;;;20.20;4.18;;;8.80;81.00;;;;;;4977344;28;20043;-73
2021/04/05 05:18:12;;;;;;;11.15;3.63;;;8.80;81.00;;;;;;4993229;28;20475;-73
2021/04/05 05:20:38;;;;;;;6.18;2.80;;;8.90;81.10;;;;;;4975244;28;20045;-73
2021/04/05 05:23:05;;;;;;;9.93;3.45;;;8.90;80.90;;;;;;4993277;28;20014;-74
2021/04/05 05:25:33;;;;;;;7.88;3.15;;;8.90;80.80;;;;;;4992365;28;20023;-74
2021/04/05 05:28:05;;;;;;;6.60;2.50;;;8.90;80.70;;;;;;4992921;28;20064;-74
2021/04/05 05:30:31;;;;;;;4.88;2.78;;;9.00;80.60;;;;;;4992592;28;20093;-74
2021/04/05 05:33:01;;;;;;;4.28;2.42;;;9.00;80.40;;;;;;4993400;28;20029;-74
2021/04/05 05:35:27;;;;;;;6.57;3.00;;;9.10;80.30;;;;;;4975006;28;20030;-74
2021/04/05 05:37:59;;;;;;;9.30;2.60;;;9.10;80.20;;;;;;4992910;28;20463;-74
2021/04/05 05:40:26;;;;;;;9.25;2.88;;;9.20;80.10;;;;;;4992935;28;20026;-75
2021/04/05 05:43:04;;;;;;;5.30;2.45;;;9.20;80.10;;;;;;4992765;28;20430;-74
2021/04/05 05:45:36;;;;;;;4.97;2.60;;;9.20;79.90;;;;;;4992340;28;20035;-74
2021/04/05 05:48:26;;;;;;;3.03;1.65;;;9.10;81.40;;;;;;4993032;28;20023;-74
2021/04/05 05:51:48;;;;;;;3.17;1.23;;;8.60;84.70;;;;;;4975427;28;20026;-74
2021/04/05 05:54:33;;;;;;;1.13;0.70;;;8.00;87.10;;;;;;4932609;29;20522;-73
2021/04/05 05:57:16;;;;;;;1.30;0.77;;;7.70;88.90;;;;;;4932859;29;20027;-74
2021/04/05 05:59:53;;;;;;;1.40;0.80;;;7.50;90.00;;;;;;4981918;28;20043;-74
2021/04/05 06:02:36;;;;;;;3.60;0.70;;;7.40;90.30;;;;;;4992576;28;20034;-75
2021/04/05 06:05:47;;;;;;;0.60;0.52;;;7.30;90.40;;;;;;4992508;28;20188;-74
2021/04/05 06:08:29;;;;;;;0.80;0.73;;;7.30;90.50;;;;;;4992851;28;20018;-74
2021/04/05 06:11:32;;;;;;;3.47;0.95;;;7.20;90.80;;;;;;4975110;28;20023;-74
2021/04/05 06:14:20;;;;;;;1.20;0.60;;;7.10;91.00;;;;;;4992456;28;20037;-74
2021/04/05 06:17:13;;;;;;;3.50;0.75;;;7.10;91.10;;;;;;4991968;28;20037;-74
2021/04/05 06:19:49;;;;;;;1.10;0.73;;;7.10;91.30;;;;;;4991933;28;20026;-75
2021/04/05 06:22:42;;;;;;;3.25;0.70;;;7.00;91.70;;;;;;4992455;28;20014;-74
2021/04/05 06:25:21;;;;;;;1.15;0.52;;;7.00;91.80;;;;;;4974862;28;20093;-75
2021/04/05 06:28:25;;;;;;;0.98;0.80;;;6.90;92.00;;;;;;4991895;28;20018;-75
2021/04/05 06:31:18;;;;;;;2.20;0.50;;;6.80;92.10;;;;;;4931039;29;20400;-73
2021/04/05 06:33:51;;;;;;;1.27;0.73;;;6.80;92.20;;;;;;4991127;28;20039;-74
2021/04/05 06:36:46;;;;;;;0.40;0.40;;;6.80;92.30;;;;;;4992363;28;20031;-74
2021/04/05 06:39:28;;;;;;;1.20;0.60;;;6.80;92.20;;;;;;4992631;28;20061;-74
2021/04/05 06:41:53;;;;;;;2.80;0.63;;;6.80;92.30;;;;;;4991315;28;20047;-75
2021/04/05 06:44:50;;;;;;;0.52;0.50;;;6.80;92.40;;;;;;4974818;28;20100;-74
2021/04/05 06:47:15;;;;;;;1.05;0.52;;;6.80;92.30;;;;;;4974902;28;20467;-73
2021/04/05 06:49:53;;;;;;;0.63;0.50;;;6.80;92.40;;;;;;4991579;28;20054;-73
2021/04/05 06:52:24;;;;;;;1.17;0.52;;;6.80;92.40;;;;;;4992349;28;20030;-74
2021/04/05 06:54:56;;;;;;;;;;;6.80;92.50;;;;;;4991965;28;20034;-74
2021/04/05 06:57:34;;;;;;;1.05;0.75;;;6.70;92.80;;;;;;4992134;28;19964;-73
2021/04/05 07:00:30;;;;;;;0.57;0.57;;;6.80;92.80;;;;;;4992177;28;20026;-74
2021/04/05 07:03:40;;;;;;;0.95;0.65;;;6.80;92.70;;;;;;4991487;28;20018;-74
2021/04/05 07:06:29;;;;;;;5.20;0.93;;;6.80;92.70;;;;;;4992238;28;20014;-74
2021/04/05 07:09:27;;;;;;;0.70;0.70;;;6.80;92.70;;;;;;4973850;28;20435;-73
2021/04/05 07:12:23;;;;;;;0.52;0.52;;;6.80;92.60;;;;;;4977563;28;20034;-74
2021/04/05 07:15:12;;;;;;;1.58;0.80;;;6.80;92.60;;;;;;4994990;28;20065;-73
2021/04/05 07:18:05;;;;;;;2.72;0.88;;;6.80;92.80;;;;;;4986793;28;20046;-74
2021/04/05 07:20:53;;;;;;;1.48;1.35;;;6.70;93.10;;;;;;4995818;28;20118;-73
2021/04/05 07:23:41;;;;;;;1.38;0.70;;;6.60;93.30;;;;;;4995514;28;20029;-74
2021/04/05 07:26:30;;;;;;;1.17;0.57;;;6.50;93.40;;;;;;4995411;28;20023;-73
2021/04/05 07:29:19;;;;;;;0.73;0.63;;;6.40;93.60;;;;;;4994520;28;20371;-73
2021/04/05 07:32:19;;;;;;;1.52;0.93;;;6.30;93.70;;;;;;4994648;28;20082;-74
2021/04/05 07:34:54;;;;;;;0.73;0.63;;;6.20;93.70;;;;;;4977098;28;20041;-74
2021/04/05 07:37:44;;;;;;;0.50;0.50;;;6.10;93.90;;;;;;4995315;28;20085;-74
2021/04/05 07:40:44;;;;;;;1.50;0.60;;;6.10;94.20;;;;;;4995162;28;20022;-74
2021/04/05 07:43:16;;;;;;;0.65;0.50;;;6.10;93.90;;;;;;4995252;28;20026;-73
2021/04/05 07:45:53;;;;;;;1.40;0.68;;;6.10;93.80;;;;;;4994616;28;20105;-74
2021/04/05 07:48:34;;;;;;;2.20;1.17;;;6.20;93.80;;;;;;4977248;28;20030;-74
2021/04/05 07:51:18;;;;;;;4.45;1.38;;;6.10;93.80;;;;;;4995276;28;20497;-74
2021/04/05 07:53:50;;;;;;;2.53;0.65;;;6.00;93.70;;;;;;4994244;28;20109;-72
2021/04/05 07:56:38;;;;;;;6.65;1.63;;;5.90;93.70;;;;;;4995080;28;20027;-74
2021/04/05 07:59:42;;;;;;;3.35;0.90;;;5.80;93.60;;;;;;4995052;28;20051;-74
2021/04/05 08:02:22;;;;;;;7.72;1.75;;;5.60;93.60;;;;;;4995080;28;20537;-74
2021/04/05 08:05:01;;;;;;;3.58;0.90;;;5.50;93.80;;;;;;4976573;28;20033;-75
2021/04/05 08:07:39;;;;;;;2.85;1.20;;;5.40;94.00;;;;;;4994628;28;20022;-73
2021/04/05 08:10:37;;;;;;;6.15;1.08;;;5.50;94.00;;;;;;4977397;28;20023;-75
2021/04/05 08:13:12;;;;;;;3.75;1.08;;;5.60;93.90;;;;;;4993892;28;20458;-74
2021/04/05 08:16:18;;;;;;;3.55;1.48;;;5.60;93.70;;;;;;4993772;28;20101;-71
2021/04/05 08:19:16;;;;;;;1.02;0.77;;;5.70;93.60;;;;;;4969027;28;20039;-73
2021/04/05 08:21:52;;;;;;;2.75;0.90;;;5.80;93.40;;;;;;4993898;28;20109;-73
2021/04/05 08:24:36;;;;;;;7.38;1.38;;;5.90;93.30;;;;;;4994311;28;20062;-74
2021/04/05 08:27:19;;;;;;;5.53;1.08;;;6.00;93.10;;;;;;4976568;28;20022;-75
2021/04/05 08:29:54;;;;;;;3.60;1.45;;;6.00;93.00;;;;;;4993767;28;20053;-73
2021/04/05 08:32:54;;;;;;;4.53;1.20;;;6.00;92.90;;;;;;4994411;28;20037;-73
2021/04/05 08:35:32;;;;;;;4.68;1.50;;;6.10;92.90;;;;;;4976760;28;20057;-73
2021/04/05 08:38:34;;;;;;;3.83;1.15;;;6.10;92.70;;;;;;4993211;28;20121;-73
2021/04/05 08:41:11;;;;;;;3.40;0.98;;;6.10;92.40;;;;;;4993440;28;20060;-75
2021/04/05 08:43:51;;;;;;;1.60;0.80;;;6.10;92.10;;;;;;4993677;28;20023;-74
2021/04/05 08:46:24;;;;;;;2.78;1.05;;;6.00;92.00;;;;;;4994119;28;20061;-73
2021/04/05 08:49:00;;;;;;;5.22;1.38;;;6.10;91.80;;;;;;4993359;28;20169;-75
2021/04/05 08:51:40;;;;;;;1.13;1.00;;;6.10;91.40;;;;;;4993864;28;20023;-74
2021/04/05 08:54:07;;;;;;;1.27;0.85;;;6.20;91.20;;;;;;4993395;28;20378;-74
2021/04/05 08:56:42;;;;;;;0.90;0.80;;;6.20;90.90;;;;;;4993539;28;20106;-73
2021/04/05 08:59:13;;;;;;;0.70;0.70;;;6.30;90.90;;;;;;4976057;28;20142;-74
2021/04/05 09:01:39;;;;;;;;;;;6.40;90.90;;;;;;4994064;28;20061;-74
2021/04/05 09:04:06;;;;;;;2.05;1.00;;;6.40;90.30;;;;;;4992873;28;20047;-73
2021/04/05 09:06:51;;;;;;;2.53;1.38;;;6.40;90.20;;;;;;4993150;28;20120;-74
2021/04/05 09:09:19;;;;;;;3.13;1.15;;;6.50;89.70;;;;;;4993201;28;20026;-74
2021/04/05 09:11:45;;;;;;;2.97;0.77;;;6.60;90.00;;;;;;4992620;28;20096;-74
2021/04/05 09:14:14;;;;;;;0.82;0.70;;;6.60;89.30;;;;;;4976367;28;20026;-73
2021/04/05 09:17:02;;;;;;;1.33;0.43;;;6.50;88.80;;;;;;4975645;28;20062;-73
2021/04/05 09:20:06;;;;;;;0.75;0.50;;;6.40;88.50;;;;;;4975418;28;20018;-73
2021/04/05 09:23:09;;;;;;;1.40;0.68;;;6.30;88.90;;;;;;4975562;28;20107;-74
2021/04/05 09:26:03;;;;;;;1.05;0.60;;;6.30;88.90;;;;;;4992733;28;20038;-73
2021/04/05 09:28:33;;;;;;;0.70;0.50;;;6.20;88.40;;;;;;4993151;28;20018;-74
2021/04/05 09:31:01;;;;;;;1.55;0.90;;;6.30;88.70;;;;;;4992006;28;20386;-73
2021/04/05 09:33:45;;;;;;;0.60;0.60;;;6.30;88.30;;;;;;4992657;28;20024;-74
2021/04/05 09:36:39;;;;;;;6.22;0.50;;;6.40;87.40;;;;;;4992696;28;20046;-74
2021/04/05 09:39:41;;;;;;;0.40;0.40;;;6.10;86.80;;;;;;4992022;28;20026;-74
2021/04/05 09:42:22;;;;;;;3.80;0.60;;;5.90;87.80;;;;;;4974364;28;20033;-73
2021/04/05 09:45:16;;;;;;;0.50;0.50;;;5.60;89.10;;;;;;4992230;28;20034;-74
2021/04/05 09:48:16;;;;;;;2.20;0.60;;;5.60;88.50;;;;;;4992563;28;20044;-73
2021/04/05 09:51:20;;;;;;;0.47;0.47;;;5.50;88.00;;;;;;4992761;28;20416;-74
2021/04/05 09:54:21;;;;;;;1.45;0.75;;;5.50;87.90;;;;;;4974415;28;20467;-74
2021/04/05 09:56:56;;;;;;;1.42;0.50;;;5.60;87.50;;;;;;4992056;28;20029;-75
2021/04/05 09:59:36;;;;;;;1.10;0.40;;;5.60;87.40;;;;;;4992729;28;20026;-75
2021/04/05 10:02:02;;;;;;;1.00;0.60;;;5.70;87.10;;;;;;4974455;28;20429;-74
2021/04/05 10:04:29;;;;;;;0.52;0.50;;;5.80;86.90;;;;;;4992622;28;20034;-74
2021/04/05 10:06:57;;;;;;;1.00;0.50;;;5.90;86.60;;;;;;4991545;28;20089;-72
2021/04/05 10:09:30;;;;;;;0.70;0.70;;;5.90;86.10;;;;;;4992503;28;20594;-73
2021/04/05 10:11:59;;;;;;;0.80;0.80;;;6.10;85.40;;;;;;4991450;28;20493;-74
2021/04/05 10:14:25;;;;;;;4.15;0.60;;;6.10;84.90;;;;;;4992299;28;20026;-73
2021/04/05 10:16:54;;;;;;;1.13;0.80;;;6.10;84.80;;;;;;4991665;28;20065;-74
2021/04/05 10:19:34;;;;;;;3.60;1.20;;;6.20;84.10;;;;;;4975088;28;20034;-73
2021/04/05 10:22:14;;;;;;;1.40;0.88;;;6.30;82.60;;;;;;4992048;28;20033;-74
2021/04/05 10:24:42;;;;;;;1.23;0.80;;;6.30;82.20;;;;;;4992284;28;20085;-75
2021/04/05 10:27:11;;;;;;;0.90;0.70;;;6.40;80.00;;;;;;4991676;28;20022;-73
2021/04/05 10:29:39;;;;;;;1.55;0.77;;;6.20;78.70;;;;;;4992137;28;20025;-73
2021/04/05 10:32:07;;;;;;;1.77;1.45;;;6.20;79.70;;;;;;4991491;28;20042;-74
2021/04/05 10:34:35;;;;;;;1.13;0.65;;;6.20;79.80;;;;;;4992209;28;20030;-73
2021/04/05 10:37:30;;;;;;;5.45;1.52;;;6.30;79.70;;;;;;4991523;28;20022;-73
2021/04/05 10:39:55;;;;;;;1.55;0.80;;;6.30;79.00;;;;;;4991506;28;20038;-74
2021/04/05 10:42:26;;;;;;;4.32;0.95;;;6.30;78.90;;;;;;4992385;28;20356;-74
2021/04/05 10:45:01;;;;;;;1.17;0.88;;;6.30;77.20;;;;;;4993074;28;20094;-73
2021/04/05 10:47:32;;;;;;;1.85;0.80;;;6.30;76.70;;;;;;4996297;28;20536;-73
2021/04/05 10:49:59;;;;;;;5.13;0.95;;;6.30;75.90;;;;;;4995412;28;20026;-74
2021/04/05 10:52:33;;;;;;;2.08;0.80;;;6.30;75.40;;;;;;4996172;28;20022;-74
2021/04/05 10:55:04;;;;;;;1.58;0.88;;;6.20;74.20;;;;;;4995487;28;20113;-73
2021/04/05 10:57:35;;;;;;;7.07;2.05;;;6.20;73.00;;;;;;4995650;28;20389;-74
2021/04/05 11:00:06;;;;;;;8.75;1.25;;;6.20;73.50;;;;;;4995292;28;20080;-74
2021/04/05 11:02:42;;;;;;;1.63;0.80;;;6.30;73.40;;;;;;4996488;28;20022;-74
2021/04/05 11:05:10;;;;;;;2.28;1.02;;;6.30;72.20;;;;;;4977787;28;20026;-73
2021/04/05 11:07:38;;;;;;;2.53;0.85;;;6.20;71.90;;;;;;4995278;28;20018;-73
2021/04/05 11:10:07;;;;;;;1.83;0.73;;;6.20;72.40;;;;;;4994967;28;20053;-73
2021/04/05 11:12:39;;;;;;;2.75;0.82;;;6.40;71.50;;;;;;4995227;28;20018;-74
2021/04/05 11:15:10;;;;;;;1.08;0.73;;;6.70;70.80;;;;;;4994744;28;20038;-74
2021/04/05 11:17:41;;;;;;;0.52;0.50;;;6.80;70.40;;;;;;4995532;28;20067;-73
2021/04/05 11:20:11;;;;;;;0.50;0.50;;;6.40;71.90;;;;;;4994896;28;20025;-74
2021/04/05 11:22:39;;;;;;;4.85;0.80;;;5.90;74.50;;;;;;4995311;28;20033;-73
2021/04/05 11:25:17;;;;;;;1.40;0.63;;;5.30;76.70;;;;;;4994363;28;20030;-74
2021/04/05 11:27:55;;;;;;;1.52;0.73;;;4.90;78.70;;;;;;4995463;28;20081;-74
2021/04/05 11:30:27;;;;;;;1.65;0.63;;;4.70;80.00;;;;;;4977581;28;20161;-73
2021/04/05 11:32:52;;;;;;;;;;;4.70;80.30;;;;;;4977659;28;20029;-74
2021/04/05 11:35:21;;;;;;;0.60;0.60;;;4.70;82.00;;;;;;4977814;28;19909;-74
2021/04/05 11:37:51;;;;;;;1.50;1.33;;;4.70;81.60;;;;;;4995452;28;20031;-74
2021/04/05 11:40:20;;;;;;;1.27;0.80;;;4.80;81.80;;;;;;4994447;28;20026;-74
2021/04/05 11:42:49;;;;;;;1.63;0.70;;;4.90;81.80;;;;;;4986769;28;20109;-73
2021/04/05 11:45:27;;;;;;;4.53;0.82;;;5.10;82.20;;;;;;4981752;28;20394;-80
2021/04/05 11:47:54;;;;;;;0.60;0.60;;;5.30;82.10;;;;;;4973805;28;20105;-80
2021/04/05 11:50:23;;;;;;;1.55;0.90;;;5.50;81.90;;;;;;4973917;28;20105;-80
2021/04/05 11:52:56;;;;;;;1.67;0.77;;;5.70;81.70;;;;;;4973396;28;20022;-79
2021/04/05 11:55:29;;;;;;;5.47;1.10;;;5.80;81.20;;;;;;4972808;28;20058;-79
2021/04/05 11:58:20;;;;;;;2.88;1.10;;;6.00;80.10;;;;;;4972492;28;20037;-79
2021/04/05 12:00:52;;;;;;;2.63;0.80;;;6.20;79.80;;;;;;4974632;28;20026;-87
2021/04/05 12:03:43;;;;;;;1.65;0.70;;;6.40;79.00;;;;;;4973035;28;20435;-79
2021/04/05 12:06:17;;;;;;;1.60;0.88;;;6.70;78.30;;;;;;4974634;28;20041;-81
2021/04/05 12:08:57;;;;;;;11.30;1.20;;;6.70;78.30;;;;;;4973880;28;20545;-83
2021/04/05 12:11:28;;;;;;;0.60;0.60;;;6.70;76.50;;;;;;4967589;28;20176;-84
2021/04/05 12:14:06;;;;;;;1.13;0.50;;;6.30;76.00;;;;;;5000795;28;20038;-83
2021/04/05 12:16:32;;;;;;;2.50;0.60;;;6.00;77.30;;;;;;4988998;28;20045;-80
2021/04/05 12:18:59;;;;;;;4.70;0.60;;;5.70;78.80;;;;;;4983230;28;20026;-83
2021/04/05 12:21:30;;;;;;;0.55;0.55;;;5.80;80.00;;;;;;5010714;28;20056;-86
2021/04/05 12:23:58;;;;;;;1.73;0.70;;;5.80;79.50;;;;;;4984589;28;20157;-85
2021/04/05 12:26:26;;;;;;;1.50;0.70;;;6.00;79.60;;;;;;5013777;28;20066;-94
2021/04/05 12:28:54;;;;;;;2.50;0.88;;;6.20;79.30;;;;;;4994710;28;20022;-86
2021/04/05 12:31:25;;;;;;;0.75;0.60;;;6.50;79.80;;;;;;5010353;28;20050;-85
2021/04/05 12:33:58;;;;;;;7.22;0.98;;;6.70;77.80;;;;;;5008461;28;20038;-70
2021/04/05 12:36:32;;;;;;;3.70;0.95;;;6.70;74.90;;;;;;5007509;28;20029;-73
2021/04/05 12:39:00;;;;;;;2.15;0.98;;;6.50;74.50;;;;;;5004417;28;20489;-73
2021/04/05 12:41:35;;;;;;;1.67;0.47;;;6.20;75.70;;;;;;5012235;28;20018;-73
2021/04/05 12:44:05;;;;;;;0.88;0.60;;;5.70;76.80;;;;;;5011006;28;20116;-74
2021/04/05 12:46:32;;;;;;;0.80;0.80;;;5.30;79.10;;;;;;5008347;28;20181;-73
2021/04/05 12:49:02;;;;;;;2.65;0.50;;;5.20;80.60;;;;;;5009211;28;20053;-72
2021/04/05 12:51:29;;;;;;;1.08;0.75;;;5.20;81.20;;;;;;5006100;28;20488;-73
2021/04/05 12:54:10;;;;;;;1.42;0.68;;;5.20;81.60;;;;;;4990089;28;20017;-73
2021/04/05 12:56:37;;;;;;;2.13;0.70;;;5.30;81.10;;;;;;5009484;28;20037;-73
2021/04/05 12:59:03;;;;;;;1.48;0.80;;;5.50;80.70;;;;;;5011326;28;20109;-73
2021/04/05 13:01:43;;;;;;;0.85;0.60;;;5.50;80.50;;;;;;4994106;28;20108;-73
2021/04/05 13:04:10;;;;;;;0.73;0.73;;;5.60;80.00;;;;;;4991849;28;20421;-72
2021/04/05 13:06:48;;;;;;;1.52;0.60;;;5.80;80.30;;;;;;5011774;28;20025;-72
2021/04/05 13:09:38;;;;;;;1.75;0.80;;;6.00;79.50;;;;;;5007780;28;20109;-73
2021/04/05 13:12:28;;;;;;;1.88;0.95;;;6.20;79.20;;;;;;5006812;28;20130;-73
2021/04/05 13:15:02;;;;;;;1.10;0.60;;;6.40;77.90;;;;;;5003196;28;20385;-73
2021/04/05 13:17:35;;;;;;;0.52;0.43;;;6.40;72.50;;;;;;5006572;28;20105;-73
2021/04/05 13:20:09;;;;;;;1.23;0.40;;;6.50;73.10;;;;;;5006425;28;20037;-72
2021/04/05 13:22:37;;;;;;;1.45;0.60;;;6.70;71.90;;;;;;4993797;28;20421;-72
2021/04/05 13:25:09;;;;;;;1.25;0.73;;;6.80;70.00;;;;;;5009901;28;20386;-73
2021/04/05 13:27:36;;;;;;;0.70;0.40;;;6.90;68.90;;;;;;4993848;28;20083;-73
2021/04/05 13:30:05;;;;;;;0.75;0.70;;;7.00;69.20;;;;;;5010964;28;20022;-73
2021/04/05 13:32:35;;;;;;;0.60;0.60;;;7.00;68.60;;;;;;5011185;28;20124;-73
2021/04/05 13:35:07;;;;;;;1.48;0.57;;;7.10;66.70;;;;;;5008767;28;20033;-73